Terminal Aerodrome Forecast
Issued by NWS Paducah, KY

Home | Current Version | Previous Version | Text Only | Print | Product List | Glossary Off
Versions: 1 2 3 4 5 6 7 8 9 10 11 12 13 14 15 16

817
FTUS43 KPAH 231131
TAFEVV
TAF
KEVV 231131Z 2312/2412 00000KT 4SM BR MIFG SCT250
      TEMPO 2312/2313 2SM BR
     FM231300 00000KT P6SM FEW020
     FM232000 19003KT P6SM SCT030
     FM240100 18001KT P6SM BKN027=

USA.gov is the U.S. government's official web portal to all federal, state and local government web resources and services.